»·PEaware :: WAT169 KSAN-KLAS

WAT169 :: KSAN-KLAS

FLIGHT INFORMATION

Flight Status: Arrived
Operator: Unknown
More flights by this operator :: More flights under this callsign
Pilot: Marty P. (27464)
Aircraft: BOEING 737-800
(B738)
More flights by this aircraft type
Origin: KSAN San Diego Intl-Lindbergh
United States
Destination: KLAS McCarran Intl
United States
More flights between these airports :: More routes between these airports
Route: +PADRZ2 CHKNN SEBBY YELAH MISEN KEPEC6
File this flight plan on PilotEdge
Remarks:
Altitude:
(Current/Filed)
31,000ft
Speed:
(Current/Filed)
470kts
Departed: 19-May-20 08:12 PM
Arrived: 19-May-20 09:06 PM
Distance/Time
Traveled:
225nm/0:53
Distance/Time
To Go:
Arrived

Flight Plot

Page will automatically refresh every two minutes.


Map Options




Map Legend


Flown Route
Filed Route
Departure Airport
Arrival Airport
Navaid (VOR, NDB)
Fix

Horizontal Profiles

Position Reports

Time Latitude Longitude Heading Altitude Ground
Speed
19-May-20 19:53 32.732852 -117.201823 82 27ft 0kts
19-May-20 19:54 32.732852 -117.201823 82 27ft 0kts
19-May-20 19:55 32.732852 -117.201823 82 27ft 0kts
19-May-20 19:56 32.732852 -117.201824 82 27ft 0kts
19-May-20 19:57 32.732852 -117.201824 82 27ft 0kts
19-May-20 19:58 32.732852 -117.201824 82 27ft 0kts
19-May-20 19:59 32.732849 -117.201900 118 27ft 1kts
19-May-20 20:00 32.733136 -117.202385 91 27ft 1kts
19-May-20 20:01 32.732934 -117.202474 336 27ft 0kts
19-May-20 20:02 32.732934 -117.202474 336 27ft 0kts
19-May-20 20:03 32.732934 -117.202474 336 27ft 0kts
19-May-20 20:04 32.734052 -117.202709 12 27ft 12kts
19-May-20 20:05 32.734732 -117.198778 106 27ft 17kts
19-May-20 20:06 32.733439 -117.193445 106 27ft 18kts
19-May-20 20:07 32.731863 -117.186945 106 27ft 23kts
19-May-20 20:08 32.730180 -117.179996 105 27ft 20kts
19-May-20 20:09 32.729522 -117.176716 75 27ft 0kts
19-May-20 20:10 32.730334 -117.176393 287 27ft 5kts
19-May-20 20:11 32.737605 -117.206378 287 852ft 167kts
19-May-20 20:12 32.768022 -117.261075 298 3539ft 224kts
19-May-20 20:13 32.803027 -117.324349 305 6999ft 238kts
19-May-20 20:14 32.844157 -117.387406 306 10254ft 247kts
19-May-20 20:15 32.889190 -117.457354 306 11966ft 307kts
19-May-20 20:16 32.946096 -117.545750 305 13956ft 346kts
19-May-20 20:17 33.004978 -117.637625 304 16674ft 353kts
19-May-20 20:18 33.066629 -117.730315 309 19069ft 366kts
19-May-20 20:19 33.144491 -117.811708 312 21195ft 379kts
19-May-20 20:20 33.225811 -117.893450 312 23144ft 388kts
19-May-20 20:21 33.309666 -117.974939 313 25342ft 384kts
19-May-20 20:22 33.393259 -118.056583 313 26840ft 392kts
19-May-20 20:23 33.478564 -118.140149 312 28137ft 400kts
19-May-20 20:24 33.568672 -118.221362 319 29282ft 416kts
19-May-20 20:25 33.671992 -118.286721 325 30633ft 424kts
19-May-20 20:26 33.796777 -118.285702 13 31072ft 505kts
19-May-20 20:27 33.898463 -118.159056 62 31073ft 563kts
19-May-20 20:28 33.969127 -117.992736 51 31072ft 555kts
19-May-20 20:29 34.054962 -117.839148 48 31073ft 552kts
19-May-20 20:30 34.147325 -117.693714 43 31070ft 547kts
19-May-20 20:31 34.243448 -117.552501 43 31063ft 546kts
19-May-20 20:32 34.338620 -117.412718 44 31063ft 544kts
19-May-20 20:33 34.428332 -117.280709 45 31063ft 545kts
19-May-20 20:34 34.524398 -117.138834 46 31063ft 544kts
19-May-20 20:35 34.619749 -116.997350 47 31062ft 540kts
19-May-20 20:36 34.713530 -116.857598 47 31064ft 533kts
19-May-20 20:37 34.806904 -116.717937 47 30960ft 527kts
19-May-20 20:38 34.910761 -116.591589 35 28200ft 520kts
19-May-20 20:39 35.015462 -116.488827 34 25749ft 492kts
19-May-20 20:41 35.114047 -116.387297 41 24001ft 453kts
19-May-20 20:42 35.201173 -116.279670 42 23055ft 445kts
19-May-20 20:43 35.284811 -116.175105 43 20811ft 417kts
19-May-20 20:44 35.363213 -116.076627 43 18977ft 386kts
19-May-20 20:45 35.440088 -115.979618 43 18070ft 383kts
19-May-20 20:46 35.517549 -115.881595 44 15920ft 397kts
19-May-20 20:47 35.591724 -115.787356 44 14062ft 360kts
19-May-20 20:48 35.653674 -115.708286 44 13300ft 299kts
19-May-20 20:49 35.712932 -115.632282 44 13011ft 316kts
19-May-20 20:50 35.785416 -115.576960 10 13009ft 309kts
19-May-20 20:51 35.870574 -115.569126 0 13008ft 308kts
19-May-20 20:52 35.953576 -115.554221 27 12955ft 291kts
19-May-20 20:53 35.999035 -115.478423 68 12317ft 291kts
19-May-20 20:54 36.026458 -115.385006 78 11120ft 288kts
19-May-20 20:55 36.025152 -115.291008 96 10103ft 280kts
19-May-20 20:56 36.018173 -115.196629 96 8977ft 277kts
19-May-20 20:57 36.012171 -115.108113 96 8641ft 245kts
19-May-20 20:57 36.007753 -115.038380 95 7821ft 242kts
19-May-20 20:59 36.002102 -114.942652 96 6438ft 227kts
19-May-20 21:00 36.034377 -114.893415 357 4579ft 201kts
19-May-20 21:00 36.073795 -114.907633 302 4513ft 172kts
19-May-20 21:01 36.074056 -114.957301 266 4466ft 147kts
19-May-20 21:03 36.073627 -115.016305 268 3957ft 146kts
19-May-20 21:03 36.073651 -115.057860 267 3294ft 145kts
19-May-20 21:04 36.073644 -115.107617 266 2490ft 151kts
19-May-20 21:05 36.073621 -115.149535 269 2191ft 30kts
19-May-20 21:06 36.074618 -115.154924 298 2191ft 0kts
19-May-20 21:07 36.074828 -115.155356 301 2191ft 10kts
19-May-20 21:08 36.077619 -115.158215 9 2191ft 11kts
19-May-20 21:09 36.078334 -115.153409 33 2191ft 14kts
19-May-20 21:10 36.078770 -115.148065 60 2191ft 12kts
19-May-20 21:11 36.079892 -115.147101 61 2191ft 5kts

Navigation Log

Ident Type
Flight plan parsing failed, navigation log unavailable